Time;durP1;ratioP1;P1;durP2;ratioP2;P2;SDS_P1;SDS_P2;PMS_P1;PMS_P2;Temp;Humidity;BMP_temperature;BMP_pressure;BME280_temperature;BME280_humidity;BME280_pressure;Samples;Min_cycle;Max_cycle;Signal;HPM_P1;HPM_P2
2023/01/30 00:01:35;;;;;;;41.23;23.03;;;;;;;-0.06;83.03;100904.91;1482272;88;21579;-87
2023/01/30 00:04:01;;;;;;;50.53;23.97;;;;;;;-0.05;82.96;100904.86;1471146;88;22748;-87
2023/01/30 00:06:28;;;;;;;47.53;25.90;;;;;;;-0.07;83.59;100902.77;1478165;88;21733;-83
2023/01/30 00:08:54;;;;;;;40.03;22.83;;;;;;;-0.07;83.52;100894.97;1477448;88;21646;-85
2023/01/30 00:11:20;;;;;;;42.03;25.57;;;;;;;-0.07;83.87;100892.83;1473328;88;22457;-86
2023/01/30 00:13:49;;;;;;;46.40;22.60;;;;;;;-0.10;84.69;100884.70;1453885;88;21526;-86
2023/01/30 00:16:17;;;;;;;42.77;23.10;;;;;;;-0.11;84.63;100883.48;1480808;88;21524;-85
2023/01/30 00:18:43;;;;;;;44.20;24.50;;;;;;;-0.13;84.79;100876.20;1477091;88;21748;-86
2023/01/30 00:21:13;;;;;;;42.20;22.00;;;;;;;-0.15;85.04;100881.45;1469588;88;21597;-85
2023/01/30 00:23:40;;;;;;;38.03;21.80;;;;;;;-0.17;85.29;100875.92;1467194;88;21434;-88
2023/01/30 00:26:07;;;;;;;41.67;22.63;;;;;;;-0.18;85.67;100875.08;1478103;88;21672;-88
2023/01/30 00:28:34;;;;;;;45.40;24.23;;;;;;;-0.19;85.88;100872.11;1467537;88;21690;-87
2023/01/30 00:31:01;;;;;;;43.30;22.77;;;;;;;-0.18;85.48;100876.38;1470782;88;21678;-86
2023/01/30 00:33:28;;;;;;;33.03;19.90;;;;;;;-0.16;85.25;100874.57;1469860;88;22446;-87
2023/01/30 00:35:56;;;;;;;45.50;22.83;;;;;;;-0.15;85.65;100873.64;1466716;88;22198;-86
2023/01/30 00:38:23;;;;;;;43.87;22.27;;;;;;;-0.16;85.49;100865.46;1479189;88;21565;-88
2023/01/30 00:40:50;;;;;;;38.90;23.00;;;;;;;-0.16;85.66;100864.63;1466852;88;21698;-88
2023/01/30 00:49:15;;;;;;;39.95;22.45;;;;;;;-0.13;85.44;100867.92;1473647;88;23035;-85
2023/01/30 00:51:42;;;;;;;38.87;20.77;;;;;;;-0.12;85.52;100860.95;1473978;88;21429;-88
2023/01/30 00:54:08;;;;;;;43.30;22.00;;;;;;;-0.13;85.54;100858.81;1468325;88;21744;-87
2023/01/30 00:56:35;;;;;;;35.63;21.77;;;;;;;-0.16;85.76;100854.22;1467004;88;21678;-87
2023/01/30 00:59:01;;;;;;;40.43;22.13;;;;;;;-0.19;86.20;100854.36;1475205;88;21887;-87
2023/01/30 01:01:27;;;;;;;49.30;22.97;;;;;;;-0.22;86.41;100854.03;1471101;88;21936;-89
2023/01/30 01:03:53;;;;;;;42.47;23.97;;;;;;;-0.25;86.45;100847.67;1466259;88;23031;-92
2023/01/30 01:06:20;;;;;;;39.80;22.47;;;;;;;-0.27;86.78;100842.98;1478311;88;21681;-88
2023/01/30 01:08:46;;;;;;;38.87;21.87;;;;;;;-0.29;86.93;100835.27;1473500;88;21708;-92
2023/01/30 01:11:23;;;;;;;42.27;22.33;;;;;;;-0.31;87.21;100834.94;1467757;88;21643;-90
2023/01/30 01:13:40;;;;;;;36.20;20.30;;;;;;;-0.32;87.46;100831.92;1477181;88;21719;-90
2023/01/30 01:16:06;;;;;;;44.50;23.03;;;;;;;-0.35;87.37;100825.10;1474656;88;22514;-86
2023/01/30 01:18:32;;;;;;;38.27;21.77;;;;;;;-0.35;87.43;100821.66;1469757;88;22548;-89
2023/01/30 01:20:58;;;;;;;39.50;20.90;;;;;;;-0.34;87.17;100818.17;1475366;88;21422;-89
2023/01/30 01:23:24;;;;;;;39.40;21.40;;;;;;;-0.33;87.45;100820.69;1464125;88;21516;-90
2023/01/30 01:25:50;;;;;;;35.20;20.70;;;;;;;-0.34;87.34;100816.87;1466300;88;21781;-90
2023/01/30 01:28:20;;;;;;;37.63;21.20;;;;;;;-0.37;88.53;100813.95;1478111;88;21783;-87
2023/01/30 01:30:44;;;;;;;45.53;22.07;;;;;;;-0.39;88.41;100813.63;1475260;88;21510;-85
2023/01/30 01:33:10;;;;;;;38.80;21.80;;;;;;;-0.40;88.01;100818.41;1469351;88;21664;-87
2023/01/30 01:35:40;;;;;;;38.33;20.73;;;;;;;-0.40;88.17;100814.52;1482100;88;21625;-87
2023/01/30 01:38:07;;;;;;;35.43;20.40;;;;;;;-0.39;88.14;100818.83;1471800;88;21748;-85
2023/01/30 01:43:22;;;;;;;39.03;20.57;;;;;;;-0.41;88.25;100808.94;1475555;88;21730;-88
2023/01/30 01:45:53;;;;;;;40.20;20.97;;;;;;;-0.40;88.03;100808.02;1480066;88;21548;-91
2023/01/30 01:48:27;;;;;;;35.60;21.63;;;;;;;-0.41;88.26;100801.97;1470815;88;21725;-92
2023/01/30 01:50:59;;;;;;;38.43;21.23;;;;;;;-0.40;88.06;100802.81;1471841;88;21363;-91
2023/01/30 01:53:36;;;;;;;38.63;20.62;;;;;;;-0.41;88.67;100798.53;1466898;88;22345;-90
2023/01/30 01:56:04;;;;;;;35.10;19.80;;;;;;;-0.43;88.31;100792.55;1465445;88;22874;-90
2023/01/30 01:58:39;;;;;;;35.53;21.20;;;;;;;-0.47;88.18;100790.09;1474709;88;21538;-88
2023/01/30 02:01:06;;;;;;;33.93;19.93;;;;;;;-0.50;88.74;100786.33;1473569;88;21737;-92
2023/01/30 02:03:38;;;;;;;33.70;19.73;;;;;;;-0.52;88.58;100784.27;1476296;88;21644;-91
2023/01/30 02:06:06;;;;;;;30.73;17.77;;;;;;;-0.52;88.31;100787.30;1474834;88;22467;-89
2023/01/30 02:08:41;;;;;;;32.57;18.20;;;;;;;-0.53;88.29;100782.56;1469621;88;21435;-92
2023/01/30 02:11:43;;;;;;;33.73;20.27;;;;;;;-0.51;88.33;100778.15;1462709;88;21689;-90
2023/01/30 02:14:11;;;;;;;35.70;20.20;;;;;;;-0.50;87.98;100776.39;1474947;88;21962;-88
2023/01/30 02:16:37;;;;;;;35.33;21.73;;;;;;;-0.52;88.18;100775.17;1482733;88;21819;-89
2023/01/30 02:19:08;;;;;;;38.00;20.60;;;;;;;-0.52;87.74;100779.07;1469598;88;22600;-92
2023/01/30 02:21:56;;;;;;;37.13;21.60;;;;;;;-0.53;88.16;100773.46;1475511;88;21659;-91
2023/01/30 02:25:06;;;;;;;36.63;20.37;;;;;;;-0.55;88.10;100771.38;1471072;88;21636;-90
2023/01/30 02:28:10;;;;;;;38.43;19.43;;;;;;;-0.56;88.19;100768.86;1473084;88;21656;-91
2023/01/30 02:30:54;;;;;;;38.40;21.97;;;;;;;-0.56;88.17;100767.10;1473406;88;21599;-88
2023/01/30 02:33:34;;;;;;;35.07;19.70;;;;;;;-0.57;87.99;100764.12;1464043;88;22690;-90
2023/01/30 02:36:12;;;;;;;31.95;17.55;;;;;;;-0.55;88.25;100767.94;1474211;88;21585;-89
2023/01/30 02:39:01;;;;;;;39.07;20.73;;;;;;;-0.55;87.95;100768.78;1470895;88;21824;-86
2023/01/30 02:42:06;;;;;;;34.30;19.93;;;;;;;-0.53;87.72;100763.06;1465551;88;21683;-88
2023/01/30 02:44:56;;;;;;;33.77;18.57;;;;;;;-0.50;87.70;100756.42;1473807;88;22455;-86
2023/01/30 02:47:45;;;;;;;33.30;19.70;;;;;;;-0.50;87.37;100759.02;1475252;88;22285;-84
2023/01/30 02:50:20;;;;;;;36.70;19.70;;;;;;;-0.52;87.58;100747.88;1468358;88;23065;-87
2023/01/30 02:52:47;;;;;;;35.20;20.50;;;;;;;-0.57;87.83;100745.92;1471224;88;21890;-91
2023/01/30 02:55:24;;;;;;;35.07;19.30;;;;;;;-0.60;87.83;100739.56;1471224;88;22329;-90
2023/01/30 02:57:50;;;;;;;30.03;18.40;;;;;;;-0.62;87.57;100732.28;1473831;88;21641;-88
2023/01/30 03:00:25;;;;;;;32.83;18.73;;;;;;;-0.60;87.48;100728.33;1471915;88;21709;-91
2023/01/30 03:03:09;;;;;;;38.10;19.87;;;;;;;-0.59;87.33;100719.61;1462076;88;21508;-89
2023/01/30 03:06:17;;;;;;;34.90;19.20;;;;;;;-0.60;87.43;100714.87;1471432;88;21723;-88
2023/01/30 03:09:09;;;;;;;32.77;19.23;;;;;;;-0.61;87.26;100711.86;1475919;88;22167;-87
2023/01/30 03:12:05;;;;;;;31.50;19.33;;;;;;;-0.62;87.51;100706.75;1416602;88;22044;-89
2023/01/30 03:14:39;;;;;;;34.33;18.98;;;;;;;-0.63;87.33;100702.44;1464685;88;21530;-87
2023/01/30 03:17:08;;;;;;;34.57;18.87;;;;;;;-0.62;87.29;100697.19;1471963;88;22330;-88
2023/01/30 03:19:34;;;;;;;38.73;19.90;;;;;;;-0.64;87.30;100701.60;1447905;88;21651;-89
2023/01/30 03:22:00;;;;;;;35.93;19.80;;;;;;;-0.64;87.23;100693.80;1471311;88;22232;-87
2023/01/30 03:24:27;;;;;;;35.83;19.27;;;;;;;-0.62;87.23;100691.15;1473362;88;21808;-86
2023/01/30 03:27:01;;;;;;;36.77;20.03;;;;;;;-0.61;87.34;100691.06;1472139;88;21890;-89
2023/01/30 03:29:28;;;;;;;36.13;20.33;;;;;;;-0.58;87.20;100690.92;1468181;88;21733;-86
2023/01/30 03:31:54;;;;;;;31.47;18.00;;;;;;;-0.59;87.27;100681.91;1482014;88;21927;-88
2023/01/30 03:34:20;;;;;;;29.03;16.83;;;;;;;-0.63;87.42;100686.41;1475495;88;21406;-89
2023/01/30 03:36:47;;;;;;;34.17;19.23;;;;;;;-0.65;87.35;100676.99;1436030;88;21655;-89
2023/01/30 03:39:14;;;;;;;33.10;17.20;;;;;;;-0.66;87.55;100676.16;1475400;88;22256;-88
2023/01/30 03:41:40;;;;;;;43.83;23.70;;;;;;;-0.67;87.43;100670.55;1478271;88;21680;-89
2023/01/30 03:44:06;;;;;;;40.67;20.97;;;;;;;-0.66;87.37;100667.06;1444875;88;21706;-86
2023/01/30 03:46:32;;;;;;;47.90;24.17;;;;;;;-0.71;87.50;100665.95;1476565;88;22483;-87
2023/01/30 03:48:58;;;;;;;42.87;23.43;;;;;;;-0.72;87.55;100668.18;1470406;88;21782;-89
2023/01/30 03:51:24;;;;;;;35.43;19.70;;;;;;;-0.73;87.35;100658.67;1478477;88;21606;-88
2023/01/30 03:53:51;;;;;;;36.93;20.73;;;;;;;-0.72;87.64;100669.91;1460297;88;22480;-88
2023/01/30 03:56:17;;;;;;;37.00;20.83;;;;;;;-0.71;87.54;100660.76;1474840;88;21614;-87
2023/01/30 03:58:43;;;;;;;32.37;16.57;;;;;;;-0.69;87.57;100660.70;1455010;88;21813;-90
2023/01/30 04:01:09;;;;;;;33.57;20.40;;;;;;;-0.71;87.54;100658.62;1477608;88;21493;-88
2023/01/30 04:03:36;;;;;;;31.27;17.30;;;;;;;-0.73;87.30;100650.87;1472837;88;21597;-88
2023/01/30 04:06:02;;;;;;;30.40;17.63;;;;;;;-0.78;87.66;100649.40;1477818;88;21870;-87
2023/01/30 04:08:28;;;;;;;36.53;19.17;;;;;;;-0.78;87.50;100646.80;1471755;88;22603;-86
2023/01/30 04:10:55;;;;;;;35.40;19.50;;;;;;;-0.80;87.48;100639.55;1467139;88;21481;-90
2023/01/30 04:13:21;;;;;;;28.17;16.93;;;;;;;-0.79;87.48;100639.47;1473212;88;21576;-87
2023/01/30 04:15:47;;;;;;;32.30;17.27;;;;;;;-0.78;87.16;100637.24;1484804;88;21540;-87
2023/01/30 04:18:13;;;;;;;25.57;16.47;;;;;;;-0.79;87.22;100636.03;1475103;88;21492;-84
2023/01/30 04:20:39;;;;;;;33.43;19.50;;;;;;;-0.77;87.11;100633.75;1480765;88;22049;-85
2023/01/30 04:23:06;;;;;;;34.07;19.13;;;;;;;-0.78;87.21;100635.11;1465920;88;21547;-87
2023/01/30 04:25:32;;;;;;;31.40;18.67;;;;;;;-0.78;87.07;100633.80;1478183;88;22646;-89
2023/01/30 04:27:58;;;;;;;36.93;20.97;;;;;;;-0.77;87.04;100622.05;1479571;88;22187;-86
2023/01/30 04:30:24;;;;;;;28.05;17.32;;;;;;;-0.79;87.21;100621.73;1476161;88;21399;-86
2023/01/30 04:32:51;;;;;;;37.38;21.77;;;;;;;-0.83;87.31;100625.40;1476065;88;22360;-87
2023/01/30 04:35:17;;;;;;;33.90;18.57;;;;;;;-0.82;87.07;100623.17;1473171;88;21333;-86
2023/01/30 04:37:43;;;;;;;31.40;18.30;;;;;;;-0.81;87.12;100621.79;1477206;88;21532;-88
2023/01/30 04:40:11;;;;;;;32.97;18.17;;;;;;;-0.81;86.96;100616.59;1475965;88;23604;-87
2023/01/30 04:42:37;;;;;;;32.13;18.53;;;;;;;-0.80;87.07;100621.36;1474959;88;22534;-88
2023/01/30 04:45:05;;;;;;;38.57;20.90;;;;;;;-0.79;86.81;100620.44;1479660;88;22200;-90
2023/01/30 04:47:31;;;;;;;41.20;22.27;;;;;;;-0.79;86.91;100615.23;1475318;88;21427;-91
2023/01/30 04:49:57;;;;;;;34.37;20.10;;;;;;;-0.83;87.14;100621.50;1470897;88;21517;-91
2023/01/30 04:52:24;;;;;;;32.43;18.77;;;;;;;-0.83;87.04;100616.30;1479748;88;22490;-91
2023/01/30 04:54:50;;;;;;;40.07;20.30;;;;;;;-0.83;86.91;100609.80;1480646;88;23479;-92
2023/01/30 04:57:16;;;;;;;36.70;20.93;;;;;;;-0.85;87.55;100611.62;1475901;88;21847;-89
2023/01/30 04:59:42;;;;;;;42.90;21.23;;;;;;;-0.83;87.36;100615.00;1477664;88;21741;-86
2023/01/30 05:02:08;;;;;;;36.33;21.23;;;;;;;-0.82;87.25;100611.02;1470409;88;22169;-89
2023/01/30 05:04:35;;;;;;;34.73;20.37;;;;;;;-0.83;87.25;100608.05;1475228;88;22412;-90
2023/01/30 05:07:01;;;;;;;40.88;21.68;;;;;;;-0.81;87.22;100607.95;1485932;88;21605;-85
2023/01/30 05:09:27;;;;;;;33.73;20.27;;;;;;;-0.83;87.18;100612.41;1470044;88;21488;-84
2023/01/30 05:11:53;;;;;;;39.43;20.73;;;;;;;-0.83;87.05;100617.60;1473126;88;21325;-90
2023/01/30 05:14:19;;;;;;;34.90;19.87;;;;;;;-0.89;86.57;100612.66;1474698;88;22429;-88
2023/01/30 05:16:45;;;;;;;33.23;17.10;;;;;;;-0.92;86.63;100613.67;1480069;88;21935;-89
2023/01/30 05:19:12;;;;;;;32.88;19.62;;;;;;;-0.93;86.34;100613.27;1470653;88;21550;-86
2023/01/30 05:21:39;;;;;;;26.97;14.87;;;;;;;-0.91;86.00;100622.68;1469157;88;21428;-84
2023/01/30 05:24:06;;;;;;;34.33;20.23;;;;;;;-0.93;85.55;100615.86;1478807;88;21872;-86
2023/01/30 05:26:32;;;;;;;34.10;19.57;;;;;;;-0.95;85.56;100612.05;1482464;88;21497;-87
2023/01/30 05:28:59;;;;;;;24.70;15.05;;;;;;;-0.98;85.50;100618.69;1471647;88;22177;-90
2023/01/30 05:31:25;;;;;;;34.98;20.48;;;;;;;-1.04;85.33;100615.04;1485733;88;21582;-90
2023/01/30 05:33:52;;;;;;;32.67;19.57;;;;;;;-1.03;85.46;100607.66;1476121;88;21546;-90
2023/01/30 05:36:21;;;;;;;32.85;19.65;;;;;;;-1.05;85.67;100608.17;1474179;88;21560;-92
2023/01/30 05:38:47;;;;;;;32.97;19.60;;;;;;;-1.10;86.42;100598.44;1472835;88;21384;-89
2023/01/30 05:41:16;;;;;;;39.40;22.43;;;;;;;-1.13;86.76;100595.98;1474212;88;22204;-87
2023/01/30 05:43:42;;;;;;;33.90;19.93;;;;;;;-1.12;86.73;100597.69;1478834;88;22074;-84
2023/01/30 05:46:12;;;;;;;34.95;20.02;;;;;;;-1.09;86.72;100596.25;1474088;88;21807;-86
2023/01/30 05:48:38;;;;;;;34.13;20.70;;;;;;;-1.09;87.10;100587.16;1470871;88;21441;-87
2023/01/30 05:51:05;;;;;;;35.13;20.43;;;;;;;-1.07;87.19;100576.67;1475814;88;21547;-92
2023/01/30 05:53:33;;;;;;;34.83;19.90;;;;;;;-1.08;87.32;100577.14;1469400;88;21355;-93
2023/01/30 05:56:04;;;;;;;34.58;20.97;;;;;;;-1.05;87.15;100586.55;1478302;88;21331;-93
2023/01/30 05:58:31;;;;;;;38.45;21.15;;;;;;;-1.07;87.74;100586.61;1482752;88;21347;-94
2023/01/30 06:01:04;;;;;;;30.40;18.77;;;;;;;-1.06;87.89;100593.51;1464604;88;21510;-88
2023/01/30 06:03:31;;;;;;;31.57;18.25;;;;;;;-1.07;88.08;100591.80;1468183;88;22279;-89
2023/01/30 06:05:58;;;;;;;37.63;20.08;;;;;;;-1.15;88.33;100591.33;1468823;88;21466;-89
2023/01/30 06:08:24;;;;;;;29.70;19.57;;;;;;;-1.16;88.28;100587.86;1476498;88;21362;-88
2023/01/30 06:10:50;;;;;;;32.03;20.60;;;;;;;-1.19;88.33;100584.11;1480057;88;21816;-91
2023/01/30 06:13:17;;;;;;;36.80;21.05;;;;;;;-1.28;87.96;100586.28;1462255;88;22382;-92
2023/01/30 06:15:43;;;;;;;33.15;20.08;;;;;;;-1.29;87.53;100588.50;1481879;88;21363;-90
2023/01/30 06:18:09;;;;;;;36.13;20.52;;;;;;;-1.34;87.27;100589.16;1459885;88;21447;-83
2023/01/30 06:20:36;;;;;;;31.93;19.77;;;;;;;-1.40;87.27;100584.62;1469052;88;21525;-88
2023/01/30 06:23:02;;;;;;;32.03;19.62;;;;;;;-1.36;87.24;100590.05;1476641;88;21450;-87
2023/01/30 06:25:28;;;;;;;70.83;28.95;;;;;;;-1.37;86.75;100593.56;1462619;88;21510;-84
2023/01/30 06:27:54;;;;;;;40.10;25.48;;;;;;;-1.40;86.77;100589.81;1473974;88;21406;-87
2023/01/30 06:30:21;;;;;;;32.35;21.77;;;;;;;-1.45;86.19;100595.66;1472444;88;21317;-86
2023/01/30 06:32:50;;;;;;;34.88;21.57;;;;;;;-1.45;85.48;100590.92;1470821;88;22566;-88
2023/01/30 06:35:17;;;;;;;36.83;21.77;;;;;;;-1.47;85.36;100580.59;1477700;88;21399;-86
2023/01/30 06:37:44;;;;;;;37.10;22.30;;;;;;;-1.42;85.59;100580.39;1472312;88;21361;-86
2023/01/30 06:40:12;;;;;;;35.45;23.05;;;;;;;-1.42;85.81;100577.34;1472105;88;21266;-86
2023/01/30 06:42:38;;;;;;;37.33;23.22;;;;;;;-1.43;86.35;100583.45;1480668;88;21399;-87
2023/01/30 06:45:05;;;;;;;31.30;21.07;;;;;;;-1.51;86.12;100577.75;1477550;88;21495;-87
2023/01/30 06:47:31;;;;;;;36.60;21.52;;;;;;;-1.55;85.39;100585.30;1475059;88;21426;-87
2023/01/30 06:50:10;;;;;;;37.35;22.52;;;;;;;-1.60;83.83;100581.59;1472641;88;21518;-87
2023/01/30 06:52:41;;;;;;;26.73;15.30;;;;;;;-1.64;83.22;100581.34;1459724;88;21591;-85
2023/01/30 06:55:11;;;;;;;42.93;22.77;;;;;;;-1.66;82.89;100583.62;1472850;88;21354;-87
2023/01/30 06:57:37;;;;;;;50.52;25.32;;;;;;;-1.71;83.02;100583.80;1473005;88;21399;-87
2023/01/30 07:00:08;;;;;;;37.85;22.05;;;;;;;-1.68;83.21;100582.38;1473281;88;21575;-87
2023/01/30 07:06:16;;;;;;;27.95;19.77;;;;;;;-1.73;80.18;100574.39;1474375;88;20402;-87
2023/01/30 07:08:43;;;;;;;34.18;21.50;;;;;;;-1.69;79.94;100577.27;1464708;88;22250;-87
2023/01/30 07:11:10;;;;;;;38.45;20.95;;;;;;;-1.69;79.75;100581.16;1466580;88;21606;-87
2023/01/30 07:13:36;;;;;;;36.93;20.50;;;;;;;-1.69;79.59;100574.67;1470970;88;21413;-83
2023/01/30 07:16:02;;;;;;;26.52;15.18;;;;;;;-1.73;78.57;100570.04;1475283;88;21539;-87
2023/01/30 07:18:28;;;;;;;33.10;20.68;;;;;;;-1.82;77.79;100569.98;1478872;88;22249;-90
2023/01/30 07:20:54;;;;;;;31.50;21.20;;;;;;;-1.82;78.03;100579.06;1477182;88;21487;-88
2023/01/30 07:23:20;;;;;;;28.77;18.37;;;;;;;-1.81;77.91;100555.28;1457318;88;21406;-91
2023/01/30 07:25:46;;;;;;;30.05;18.02;;;;;;;-1.87;77.16;100564.59;1475163;88;21399;-87
2023/01/30 07:28:13;;;;;;;37.78;18.87;;;;;;;-1.86;77.37;100567.60;1475910;88;21576;-92
2023/01/30 07:30:40;;;;;;;31.68;17.73;;;;;;;-1.89;76.38;100562.55;1475645;88;22316;-88
2023/01/30 07:33:06;;;;;;;26.65;17.37;;;;;;;-1.86;76.84;100559.36;1472761;88;21444;-87
2023/01/30 07:35:35;;;;;;;24.63;16.70;;;;;;;-1.92;75.85;100560.92;1472281;88;21532;-90
2023/01/30 07:38:01;;;;;;;28.17;17.50;;;;;;;-1.95;75.51;100548.54;1473833;88;21346;-88
2023/01/30 07:40:27;;;;;;;26.68;17.45;;;;;;;-2.00;75.64;100543.99;1472252;88;21498;-88
2023/01/30 07:43:04;;;;;;;28.30;17.67;;;;;;;-1.97;76.17;100537.38;1470786;88;21339;-87
2023/01/30 07:45:44;;;;;;;31.07;19.25;;;;;;;-1.94;76.48;100526.41;1473254;88;22499;-86
2023/01/30 07:48:14;;;;;;;27.77;17.23;;;;;;;-1.92;76.31;100532.84;1458463;88;21531;-85
2023/01/30 07:50:40;;;;;;;22.82;15.40;;;;;;;-1.90;75.42;100532.30;1399164;88;21459;-87
2023/01/30 07:53:11;;;;;;;25.97;16.65;;;;;;;-1.85;73.75;100533.79;1397827;88;21207;-88
2023/01/30 07:55:37;;;;;;;24.60;15.65;;;;;;;-1.74;74.36;100529.91;1536960;88;21317;-88
2023/01/30 07:58:03;;;;;;;28.40;16.97;;;;;;;-1.67;74.10;100518.33;1476223;88;21354;-87
2023/01/30 08:00:30;;;;;;;28.17;16.77;;;;;;;-1.64;73.19;100522.09;1452845;88;22300;-89
2023/01/30 08:02:57;;;;;;;31.12;18.10;;;;;;;-1.55;73.63;100517.81;1473539;88;21509;-88
2023/01/30 08:05:23;;;;;;;29.82;16.62;;;;;;;-1.45;73.16;100507.38;1474016;88;21569;-87
2023/01/30 08:07:49;;;;;;;26.05;16.77;;;;;;;-1.46;72.80;100507.47;1457067;88;21561;-88
2023/01/30 08:10:41;;;;;;;30.10;17.48;;;;;;;-1.53;72.47;100496.95;1444833;88;21390;-87
2023/01/30 08:13:29;;;;;;;21.15;12.70;;;;;;;-1.55;73.00;100498.34;1459238;88;21946;-87
2023/01/30 08:16:03;;;;;;;30.92;17.40;;;;;;;-1.62;72.62;100503.41;1487462;88;21510;-87
2023/01/30 08:18:31;;;;;;;25.90;15.03;;;;;;;-1.50;72.78;100514.98;1393931;88;22288;-90
2023/01/30 08:21:05;;;;;;;31.35;18.75;;;;;;;-1.50;72.69;100502.84;1397013;88;21274;-87
2023/01/30 08:23:32;;;;;;;28.05;16.20;;;;;;;-1.49;72.93;100516.23;1474469;88;21554;-87
2023/01/30 08:26:01;;;;;;;27.60;17.90;;;;;;;-1.56;72.50;100512.21;1470796;88;22301;-86
2023/01/30 08:28:29;;;;;;;32.53;17.07;;;;;;;-1.44;73.13;100514.28;1472414;88;21742;-85
2023/01/30 08:30:56;;;;;;;32.67;19.73;;;;;;;-1.35;72.53;100501.34;1466468;88;21758;-88
2023/01/30 08:33:23;;;;;;;30.97;19.82;;;;;;;-1.24;72.65;100506.02;1467231;89;21524;-86
2023/01/30 08:35:51;;;;;;;25.20;17.43;;;;;;;-1.18;72.18;100494.04;1468305;88;21397;-83
2023/01/30 08:38:17;;;;;;;25.07;15.53;;;;;;;-1.20;72.28;100497.19;1427207;88;21443;-84
2023/01/30 08:40:43;;;;;;;29.77;18.70;;;;;;;-1.14;72.23;100489.11;1464485;89;21648;-84
2023/01/30 08:43:10;;;;;;;32.90;20.20;;;;;;;-1.00;72.30;100482.81;1465225;88;21584;-85
2023/01/30 08:45:36;;;;;;;28.70;17.43;;;;;;;-0.87;72.26;100476.55;1470408;88;21726;-88
2023/01/30 08:48:05;;;;;;;34.20;20.87;;;;;;;-0.86;71.37;100475.66;1465313;89;21622;-86
2023/01/30 08:50:32;;;;;;;24.67;15.47;;;;;;;-0.76;71.84;100473.45;1467239;89;22585;-83
2023/01/30 08:53:08;;;;;;;28.30;19.60;;;;;;;-0.70;71.69;100480.94;1466006;88;21660;-84
2023/01/30 08:55:35;;;;;;;27.70;16.57;;;;;;;-0.70;71.17;100469.25;1388101;88;21481;-84
2023/01/30 09:02:01;;;;;;;25.67;16.80;;;;;;;-0.90;71.46;100461.11;1466370;89;22674;-85
2023/01/30 09:04:31;;;;;;;29.33;18.87;;;;;;;-0.95;71.95;100454.86;1463732;88;22646;-83
2023/01/30 09:06:57;;;;;;;29.03;18.50;;;;;;;-0.90;71.61;100448.13;1468196;89;21642;-83
2023/01/30 09:09:24;;;;;;;25.53;16.87;;;;;;;-0.73;71.25;100444.70;1472453;88;21897;-83
2023/01/30 09:11:50;;;;;;;26.70;17.40;;;;;;;-0.56;70.57;100432.18;1469958;88;21829;-86
2023/01/30 09:14:18;;;;;;;23.80;15.27;;;;;;;-0.38;70.46;100431.70;1465294;89;21791;-82
2023/01/30 09:16:46;;;;;;;31.63;21.23;;;;;;;-0.22;70.71;100426.11;1468269;88;21384;-83
2023/01/30 09:19:13;;;;;;;35.63;19.90;;;;;;;-0.13;69.88;100426.94;1464333;89;22484;-84
2023/01/30 09:21:40;;;;;;;25.70;17.93;;;;;;;-0.15;69.95;100420.96;1462171;88;21764;-83
2023/01/30 09:24:06;;;;;;;29.27;19.23;;;;;;;-0.15;69.44;100417.06;1464582;88;21633;-86
2023/01/30 09:26:32;;;;;;;27.83;18.27;;;;;;;-0.18;70.00;100413.31;1460927;89;21837;-85
2023/01/30 09:28:58;;;;;;;28.10;18.93;;;;;;;-0.18;69.59;100400.31;1469839;88;22686;-86
2023/01/30 09:31:25;;;;;;;31.50;19.83;;;;;;;-0.31;69.41;100397.52;1470267;88;21577;-87
2023/01/30 09:33:51;;;;;;;29.47;19.27;;;;;;;-0.39;69.22;100394.93;1472043;88;21642;-89
2023/01/30 09:36:19;;;;;;;31.10;19.30;;;;;;;-0.52;69.27;100387.77;1472979;88;22736;-85
2023/01/30 09:38:46;;;;;;;32.77;20.97;;;;;;;-0.62;69.43;100370.10;1473730;88;21832;-87
2023/01/30 09:41:56;;;;;;;32.03;20.53;;;;;;;-0.59;70.46;100375.98;1474722;88;22565;-85
2023/01/30 09:44:50;;;;;;;32.10;20.40;;;;;;;-0.60;70.33;100370.41;1473694;88;21495;-87
2023/01/30 09:47:56;;;;;;;29.27;17.30;;;;;;;-0.60;70.97;100366.98;1471787;88;21717;-86
2023/01/30 09:50:52;;;;;;;30.37;20.10;;;;;;;-0.68;69.87;100382.95;1445508;88;21742;-88
2023/01/30 09:53:39;;;;;;;28.83;19.57;;;;;;;-0.70;70.39;100363.98;1475603;88;22607;-87
2023/01/30 09:56:05;;;;;;;34.13;21.60;;;;;;;-0.62;70.06;100362.30;1475754;88;21561;-87
2023/01/30 09:58:43;;;;;;;37.17;22.10;;;;;;;-0.61;70.43;100355.71;1474806;88;22494;-87
2023/01/30 10:01:33;;;;;;;33.40;21.30;;;;;;;-0.53;70.54;100339.73;1474319;88;21701;-84
2023/01/30 10:11:46;;;;;;;34.10;21.73;;;;;;;-0.42;70.34;100336.58;1399841;88;21430;-85
2023/01/30 10:14:27;;;;;;;31.97;18.43;;;;;;;-0.53;70.73;100344.46;1559133;88;21518;-82
2023/01/30 10:17:29;;;;;;;28.30;19.23;;;;;;;-0.68;71.06;100340.06;1559588;88;21407;-86
2023/01/30 10:20:06;;;;;;;30.33;20.97;;;;;;;-0.88;71.22;100328.08;1554805;88;21185;-85
2023/01/30 10:23:11;;;;;;;32.40;18.73;;;;;;;-0.92;72.23;100323.96;1411770;92;21730;-84
2023/01/30 10:25:46;;;;;;;36.90;21.70;;;;;;;-0.94;72.43;100316.23;1396515;93;21792;-84
2023/01/30 10:28:30;;;;;;;29.20;18.37;;;;;;;-0.84;73.01;100309.27;1399889;93;21660;-82
2023/01/30 10:31:07;;;;;;;31.10;19.40;;;;;;;-0.86;73.25;100311.95;1401539;93;21764;-83
2023/01/30 10:33:43;;;;;;;29.47;18.80;;;;;;;-0.87;72.48;100311.55;1400945;93;21711;-86
2023/01/30 10:36:13;;;;;;;32.43;20.07;;;;;;;-0.92;72.45;100304.02;1394130;93;21736;-86
2023/01/30 10:38:45;;;;;;;32.83;19.93;;;;;;;-0.96;73.13;100303.77;1401054;93;21698;-83
2023/01/30 10:41:37;;;;;;;42.27;23.43;;;;;;;-0.97;73.73;100294.30;1403475;92;21881;-84
2023/01/30 10:44:12;;;;;;;38.07;22.57;;;;;;;-0.97;74.46;100287.81;1492668;92;21663;-83
2023/01/30 10:46:56;;;;;;;30.73;18.87;;;;;;;-1.02;74.19;100285.06;1362329;92;22766;-85
2023/01/30 10:49:43;;;;;;;36.37;19.90;;;;;;;-0.97;74.67;100277.41;1423601;92;21701;-86
2023/01/30 10:52:53;;;;;;;31.63;18.10;;;;;;;-0.79;74.15;100264.40;1413541;92;21936;-86
2023/01/30 10:55:39;;;;;;;33.77;21.07;;;;;;;-0.52;72.99;100251.27;1415527;92;21496;-87
2023/01/30 10:58:31;;;;;;;30.47;19.97;;;;;;;-0.01;72.12;100247.22;1415782;92;21948;-86
2023/01/30 11:01:27;;;;;;;25.02;16.48;;;;;;;-0.01;70.24;100232.91;1459611;88;22354;-80
2023/01/30 11:03:58;;;;;;;32.87;18.43;;;;;;;-0.15;70.68;100223.72;1407278;91;21333;-84
2023/01/30 11:06:25;;;;;;;34.13;19.17;;;;;;;-0.30;71.28;100216.30;1396052;90;21555;-81
2023/01/30 11:08:53;;;;;;;30.17;19.27;;;;;;;-0.24;71.69;100217.26;1403251;88;21627;-89
2023/01/30 11:11:51;;;;;;;29.75;18.95;;;;;;;-0.23;72.16;100203.36;1417366;88;21845;-87
2023/01/30 11:14:17;;;;;;;27.07;17.87;;;;;;;-0.12;71.40;100187.96;1473750;88;21623;-86
2023/01/30 11:16:51;;;;;;;31.40;20.33;;;;;;;-0.07;71.53;100170.34;1472317;88;21686;-87
2023/01/30 11:19:22;;;;;;;24.63;17.37;;;;;;;-0.07;71.86;100169.04;1475860;88;21538;-89
2023/01/30 11:21:54;;;;;;;26.42;16.62;;;;;;;-0.09;71.67;100172.64;1431628;88;22489;-87
2023/01/30 11:24:25;;;;;;;32.00;18.57;;;;;;;-0.19;71.64;100168.91;1414020;88;22382;-88
2023/01/30 11:26:52;;;;;;;30.95;20.50;;;;;;;-0.32;72.49;100173.92;1456669;88;22825;-87
2023/01/30 11:29:32;;;;;;;41.90;22.37;;;;;;;-0.34;72.92;100162.79;1474737;88;21332;-86
2023/01/30 11:32:09;;;;;;;27.03;18.70;;;;;;;-0.34;73.41;100162.79;1476025;88;22678;-82
2023/01/30 11:34:36;;;;;;;34.73;21.10;;;;;;;-0.33;73.45;100154.89;1476256;88;21760;-86
2023/01/30 11:37:27;;;;;;;31.27;19.33;;;;;;;-0.28;73.17;100147.67;1473483;88;21548;-85
2023/01/30 11:39:53;;;;;;;28.47;20.20;;;;;;;-0.27;73.19;100145.91;1472586;88;21724;-86
2023/01/30 11:42:24;;;;;;;27.20;17.97;;;;;;;-0.34;73.60;100124.61;1476117;88;21528;-84
2023/01/30 11:44:59;;;;;;;31.75;20.52;;;;;;;-0.31;74.02;100105.41;1470652;88;21734;-85
2023/01/30 11:47:28;;;;;;;30.87;20.33;;;;;;;-0.39;74.19;100108.42;1473261;88;22373;-86
2023/01/30 11:50:01;;;;;;;35.27;21.00;;;;;;;-0.29;74.36;100117.84;1473717;88;21550;-84
2023/01/30 11:52:36;;;;;;;33.30;22.20;;;;;;;-0.23;74.57;100112.31;1472615;88;21746;-86